Funchalense 5 — CSKN — position and weather

sailwx.info

Track history (hours):
 
Tides and Currents Weather Stations Pressure Air Temp Water Temp Dewpoint Dewpoint Depression Visibility Wind Speed Wind Dir Waves Ship Positions

Funchalense 5

Last reported at 2014-Jul-24 09:17 UTC. Time now 2014-Jul-25 20:47 UTC.
Position N 39°48' W 009°28'.

Length 127 m; draft 7.7 m.

Type: Ship. MMSI: 255804250.

Date/timePositionNaut miles runAvg speedWind from/ knotsBaromVisibWave heightAir tempDewpointWater temp
2014-Jul-24 09:17N 39°48' W 009°28'2714.4
2014-Jul-24 07:25N 39°31' W 009°55'1815.9
2014-Jul-24 06:16N 39°19' W 010°13'  
2014-Jul-19 22:10N 38°33' W 009°27'915.3
2014-Jul-19 21:34N 38°40' W 009°19'1010.1
2014-Jul-19 20:31N 38°44' W 009°06'0 0.0
2014-Jul-19 19:31N 38°44' W 009°06'0 0.0
2014-Jul-19 18:33N 38°44' W 009°06'0 0.1
2014-Jul-19 17:33N 38°44' W 009°06'0 0.0
2014-Jul-19 16:34N 38°44' W 009°06'0 0.0
2014-Jul-19 15:34N 38°44' W 009°06'0 0.0
2014-Jul-19 14:34N 38°44' W 009°06'0 0.0
2014-Jul-19 13:33N 38°44' W 009°06'0 0.0
2014-Jul-19 12:34N 38°44' W 009°06'0 0.0
2014-Jul-19 11:34N 38°44' W 009°06'0 0.0
2014-Jul-19 10:34N 38°44' W 009°06'0 0.0
2014-Jul-19 09:34N 38°44' W 009°06'0 0.0
2014-Jul-19 08:34N 38°44' W 009°06'0 0.1
2014-Jul-19 07:34N 38°44' W 009°06'  
2014-Jul-17 01:30N 38°60' W 010°26'1615.0
2014-Jul-17 00:25N 38°47' W 010°39'5714.7
2014-Jul-16 20:33N 38°02' W 011°24'1514.7
2014-Jul-16 19:33N 37°51' W 011°35'1714.5
2014-Jul-16 18:24N 37°38' W 011°49'1214.4
2014-Jul-16 17:33N 37°28' W 011°58'1414.2
2014-Jul-16 16:33N 37°17' W 012°09'1614.3
2014-Jul-16 15:27N 37°04' W 012°21'1314.6
2014-Jul-16 14:33N 36°54' W 012°32'1414.6
2014-Jul-16 13:33N 36°43' W 012°43'1514.6
2014-Jul-16 12:33N 36°32' W 012°55'1514.6
2014-Jul-16 11:33N 36°20' W 013°06'  
Track history (hours):
 
Tides and Currents Weather Stations Pressure Air Temp Water Temp Dewpoint Dewpoint Depression Visibility Wind Speed Wind Dir Waves Ship Positions

Funchalense 5

Last reported at 2014-Jul-24 09:17 UTC. Time now 2014-Jul-25 20:47 UTC.
Position N 39°48' W 009°28'.

Length 127 m; draft 7.7 m.

Type: Ship. MMSI: 255804250.

Date/timePositionNaut miles runAvg speedWind from/ knotsBaromVisibWave heightAir tempDewpointWater temp
2014-Jul-24 09:17N 39°48' W 009°28'2714.4
2014-Jul-24 07:25N 39°31' W 009°55'1815.9
2014-Jul-24 06:16N 39°19' W 010°13'  
2014-Jul-19 22:10N 38°33' W 009°27'915.3
2014-Jul-19 21:34N 38°40' W 009°19'1010.1
2014-Jul-19 20:31N 38°44' W 009°06'0 0.0
2014-Jul-19 19:31N 38°44' W 009°06'0 0.0
2014-Jul-19 18:33N 38°44' W 009°06'0 0.1
2014-Jul-19 17:33N 38°44' W 009°06'0 0.0
2014-Jul-19 16:34N 38°44' W 009°06'0 0.0
2014-Jul-19 15:34N 38°44' W 009°06'0 0.0
2014-Jul-19 14:34N 38°44' W 009°06'0 0.0
2014-Jul-19 13:33N 38°44' W 009°06'0 0.0
2014-Jul-19 12:34N 38°44' W 009°06'0 0.0
2014-Jul-19 11:34N 38°44' W 009°06'0 0.0
2014-Jul-19 10:34N 38°44' W 009°06'0 0.0
2014-Jul-19 09:34N 38°44' W 009°06'0 0.0
2014-Jul-19 08:34N 38°44' W 009°06'0 0.1
2014-Jul-19 07:34N 38°44' W 009°06'  
2014-Jul-17 01:30N 38°60' W 010°26'1615.0
2014-Jul-17 00:25N 38°47' W 010°39'5714.7
2014-Jul-16 20:33N 38°02' W 011°24'1514.7
2014-Jul-16 19:33N 37°51' W 011°35'1714.5
2014-Jul-16 18:24N 37°38' W 011°49'1214.4
2014-Jul-16 17:33N 37°28' W 011°58'1414.2
2014-Jul-16 16:33N 37°17' W 012°09'1614.3
2014-Jul-16 15:27N 37°04' W 012°21'1314.6
2014-Jul-16 14:33N 36°54' W 012°32'1414.6
2014-Jul-16 13:33N 36°43' W 012°43'1514.6
2014-Jul-16 12:33N 36°32' W 012°55'1514.6
2014-Jul-16 11:33N 36°20' W 013°06'  

Dump ship's entire track history